BM-0002 weather

CLOSED Naval Air Station Bermuda Annex
Morgan's Point, Bermuda

Public forecast

Using degrees Celsius for public forecast. Weather courtesy of forecast.io.

METAR (pilot weather report)

Closest report is L.F. Wade International International Airport, 10.4 nm (19.3 km) ENE. Retrieved 2019/03/20 22:55 UTC (5 minutes ago):

TXKF 202255Z 07021KT 9999 -RA SCT015 BKN055 OVC090 17/13 Q1019 RMK SCT015 V BKN

TAF (pilot weather forecast)

Closest forecast is L.F. Wade International International Airport, 10.4 nm (19.3 km) ENE. Retrieved 2019/03/20 18:54 UTC (4 hours ago):

TAF TXKF 201745Z 2018/2118 07018KT 8000 -RA BR BKN014 OVC050 TEMPO 2018/2024 SCT014 BKN030 PROB40 TEMPO 2018/2109 3200 RA PROB30 TEMPO 2100/2106 07020G30KT 1600 +RA BKN009 BECMG 2106/2109 07025KT 9000 -DZ BKN014 PROB30 TEMPO 2106/2115 07025G35KT